Darstellungsparameter: Aktuell verwendete Einstellungen:
Skalierung der Graphiken ... ?
xyx+y,   Skalierungsfaktor:      Skalierung: Modus: x, Faktor: 1
Darstellungszeitraum ... ?
Vom - - bis: - -   Zeitraum: 20.04.2020 - 20.04.2020
Min/Max/Avg-Anzeige ... ?
Zeige MMA aktuell
Zeige MMA Monat
Zeige MMA alles
Zeige --A aktuell
Zeige --A Monat
Zeige --A alles
Keine MMA-Anzeige
MMA:
Minimum Maximum Average (ber die Originaldaten)
MMA-Basis: 20.04.2020 - 20.04.2020
Quicknavigation für Darstellung... ?
Tage:      1T, 2T, 3T, 5T -1T -2T -3T -5T +1T +2T +3T +5T
Wochen: 1W, 2W, 3W -1W -2W -3W +1W +2W +3W
Monate: 1M, 3M, 6M -1M -3M -6M +1M +3M +6M
Jahre:    1J, 3J, 5J, 10J -1J -3J -5J -10J +1J +3J +5J +10J
Nutze für die Darstellung ... ?
Originaldaten oder Mittelwerte auf ...
Stundenbasis Tagesbasis Wochenbasis
Monatsbasis Jahresbasis      Datenbasis: Original-Daten
Darstellen als:
Statistik (Auto) Statistik J:M      Darstellung:
Zur Graphik,    zurück zur Übersicht aller Sensoren.
 
Tabellarische Datenbersicht: ?
 
Sensor: Nr:Datum:Temp:Abs-Feuchte:Windchill:Wind:
Aussen-T/F 1 20-04-2020 00:00:00 10.7 C 5.7 g/m*3 10.7 C 3.2 km/h
2 20-04-2020 00:05:00 10.6 C 5.86 g/m*3 10.6 C 1.6 km/h
3 20-04-2020 00:10:00 10.4 C 5.88 g/m*3 10.4 C 0 km/h
4 20-04-2020 00:15:00 10.2 C 5.71 g/m*3 10.2 C 1.6 km/h
5 20-04-2020 00:20:00 10.1 C 5.39 g/m*3 10.1 C 3.2 km/h
6 20-04-2020 00:25:00 10.2 C 5.33 g/m*3 9.6 C 6.4 km/h
7 20-04-2020 00:30:00 10.3 C 5.65 g/m*3 10.3 C 1.6 km/h
8 20-04-2020 00:35:00 10.3 C 5.55 g/m*3 10.3 C 4.8 km/h
9 20-04-2020 00:40:00 10.3 C 5.65 g/m*3 10.3 C 3.2 km/h
10 20-04-2020 00:45:00 10.2 C 5.52 g/m*3 10.2 C 3.2 km/h
11 20-04-2020 00:50:00 10.2 C 5.42 g/m*3 10.2 C 1.6 km/h
12 20-04-2020 00:55:00 10.1 C 5.58 g/m*3 10.1 C 1.6 km/h
13 20-04-2020 01:00:00 9.9 C 5.32 g/m*3 8.56 C 9.7 km/h
14 20-04-2020 01:05:00 10 C 5.36 g/m*3 9.37 C 6.4 km/h
15 20-04-2020 01:10:00 10 C 5.36 g/m*3 10 C 3.2 km/h
16 20-04-2020 01:15:00 9.9 C 5.32 g/m*3 9.25 C 6.4 km/h
17 20-04-2020 01:20:00 9.9 C 5.42 g/m*3 9.9 C 1.6 km/h
18 20-04-2020 01:25:00 9.9 C 5.14 g/m*3 8.06 C 12.9 km/h
19 20-04-2020 01:30:00 10.1 C 5.48 g/m*3 10.1 C 1.6 km/h
20 20-04-2020 01:35:00 9.9 C 5.32 g/m*3 9.9 C 4.8 km/h
21 20-04-2020 01:40:00 9.8 C 5.38 g/m*3 9.8 C 3.2 km/h
22 20-04-2020 01:45:00 9.7 C 5.44 g/m*3 9.7 C 1.6 km/h
23 20-04-2020 01:50:00 9.5 C 5.46 g/m*3 9.5 C 1.6 km/h
24 20-04-2020 01:55:00 9.2 C 5.54 g/m*3 9.2 C 0 km/h
25 20-04-2020 02:00:00 9 C 5.47 g/m*3 9 C 1.6 km/h
Sensor: Nr:Datum:Temp:Abs-Feuchte:Windchill:Wind:
Aussen-T/F 26 20-04-2020 02:05:00 8.8 C 5.48 g/m*3 8.8 C 0 km/h
27 20-04-2020 02:10:00 8.5 C 5.29 g/m*3 8.5 C 1.6 km/h
28 20-04-2020 02:15:00 8.4 C 5.34 g/m*3 8.4 C 0 km/h
29 20-04-2020 02:20:00 8.3 C 5.48 g/m*3 8.3 C 0 km/h
30 20-04-2020 02:25:00 8.2 C 5.36 g/m*3 8.2 C 3.2 km/h
31 20-04-2020 02:30:00 7.9 C 5.42 g/m*3 7.9 C 1.6 km/h
32 20-04-2020 02:35:00 7.8 C 5.3 g/m*3 7.8 C 1.6 km/h
33 20-04-2020 02:40:00 7.7 C 5.43 g/m*3 7.7 C 0 km/h
34 20-04-2020 02:45:00 7.6 C 5.32 g/m*3 7.6 C 1.6 km/h
35 20-04-2020 02:50:00 7.6 C 5.48 g/m*3 7.6 C 0 km/h
36 20-04-2020 02:55:00 7.5 C 5.44 g/m*3 7.5 C 0 km/h
37 20-04-2020 03:00:00 7.4 C 5.25 g/m*3 7.4 C 3.2 km/h
38 20-04-2020 03:05:00 7.4 C 5.33 g/m*3 7.4 C 3.2 km/h
39 20-04-2020 03:10:00 7.4 C 5.41 g/m*3 7.4 C 1.6 km/h
40 20-04-2020 03:15:00 7.3 C 5.37 g/m*3 7.3 C 0 km/h
41 20-04-2020 03:20:00 7.3 C 5.37 g/m*3 7.3 C 1.6 km/h
42 20-04-2020 03:25:00 7.2 C 5.42 g/m*3 7.2 C 1.6 km/h
43 20-04-2020 03:30:00 7.1 C 5.3 g/m*3 7.1 C 3.2 km/h
44 20-04-2020 03:35:00 7.1 C 5.3 g/m*3 7.1 C 0 km/h
45 20-04-2020 03:40:00 7.2 C 5.34 g/m*3 7.2 C 1.6 km/h
46 20-04-2020 03:45:00 7.1 C 5.38 g/m*3 7.1 C 0 km/h
47 20-04-2020 03:50:00 7.1 C 5.38 g/m*3 7.1 C 0 km/h
48 20-04-2020 03:55:00 7 C 5.35 g/m*3 7 C 0 km/h
49 20-04-2020 04:00:00 6.9 C 5.31 g/m*3 6.9 C 0 km/h
50 20-04-2020 04:05:00 6.8 C 5.35 g/m*3 6.8 C 1.6 km/h
Sensor: Nr:Datum:Temp:Abs-Feuchte:Windchill:Wind:
Aussen-T/F 51 20-04-2020 04:10:00 6.7 C 5.32 g/m*3 6.7 C 1.6 km/h
52 20-04-2020 04:15:00 6.7 C 5.32 g/m*3 6.7 C 0 km/h
53 20-04-2020 04:20:00 6.6 C 5.28 g/m*3 6.6 C 4.8 km/h
54 20-04-2020 04:25:00 6.6 C 5.28 g/m*3 6.6 C 0 km/h
55 20-04-2020 04:30:00 6.6 C 5.28 g/m*3 6.6 C 0 km/h
56 20-04-2020 04:35:00 6.6 C 5.28 g/m*3 6.6 C 1.6 km/h
57 20-04-2020 04:40:00 6.5 C 5.25 g/m*3 6.5 C 3.2 km/h
58 20-04-2020 04:45:00 6.5 C 5.25 g/m*3 6.5 C 1.6 km/h
59 20-04-2020 04:50:00 6.4 C 5.29 g/m*3 6.4 C 1.6 km/h
60 20-04-2020 04:55:00 6.4 C 5.22 g/m*3 6.4 C 1.6 km/h
61 20-04-2020 05:00:00 6.4 C 5.14 g/m*3 6.4 C 4.8 km/h
62 20-04-2020 05:05:00 6.6 C 5.28 g/m*3 6.6 C 0 km/h
63 20-04-2020 05:10:00 6.6 C 5.28 g/m*3 6.6 C 1.6 km/h
64 20-04-2020 05:15:00 6.7 C 5.32 g/m*3 6.7 C 0 km/h
65 20-04-2020 05:20:00 6.7 C 5.32 g/m*3 6.7 C 1.6 km/h
66 20-04-2020 05:25:00 6.7 C 5.32 g/m*3 6.7 C 0 km/h
67 20-04-2020 05:30:00 6.6 C 5.28 g/m*3 6.6 C 0 km/h
68 20-04-2020 05:35:00 6.6 C 5.36 g/m*3 6.6 C 1.6 km/h
69 20-04-2020 05:40:00 6.5 C 5.25 g/m*3 6.5 C 1.6 km/h
70 20-04-2020 05:45:00 6.5 C 5.25 g/m*3 6.5 C 1.6 km/h
71 20-04-2020 05:50:00 6.5 C 5.32 g/m*3 6.5 C 3.2 km/h
72 20-04-2020 05:55:00 6.5 C 5.32 g/m*3 6.5 C 3.2 km/h
73 20-04-2020 06:00:00 6.4 C 5.29 g/m*3 6.4 C 0 km/h
74 20-04-2020 06:05:00 6.4 C 5.29 g/m*3 6.4 C 1.6 km/h
75 20-04-2020 06:10:00 6.4 C 5.29 g/m*3 6.4 C 1.6 km/h
Sensor: Nr:Datum:Temp:Abs-Feuchte:Windchill:Wind:
Aussen-T/F 76 20-04-2020 06:15:00 6.3 C 5.26 g/m*3 6.3 C 1.6 km/h
77 20-04-2020 06:20:00 6.3 C 5.18 g/m*3 6.3 C 1.6 km/h
78 20-04-2020 06:25:00 6.3 C 5.26 g/m*3 6.3 C 1.6 km/h
79 20-04-2020 06:30:00 6.4 C 5.22 g/m*3 6.4 C 3.2 km/h
80 20-04-2020 06:35:00 6.5 C 5.32 g/m*3 6.5 C 3.2 km/h
81 20-04-2020 06:40:00 6.4 C 5.29 g/m*3 6.4 C 1.6 km/h
82 20-04-2020 06:45:00 6.4 C 5.36 g/m*3 6.4 C 0 km/h
83 20-04-2020 06:50:00 6.3 C 5.33 g/m*3 6.3 C 0 km/h
84 20-04-2020 06:55:00 6.3 C 5.33 g/m*3 6.3 C 3.2 km/h
85 20-04-2020 07:00:00 6.4 C 5.22 g/m*3 6.4 C 3.2 km/h
86 20-04-2020 07:05:00 6.5 C 5.25 g/m*3 6.5 C 3.2 km/h
87 20-04-2020 07:10:00 6.7 C 5.32 g/m*3 6.7 C 1.6 km/h
88 20-04-2020 07:15:00 6.7 C 5.32 g/m*3 6.7 C 3.2 km/h
89 20-04-2020 07:20:00 6.7 C 5.32 g/m*3 6.7 C 3.2 km/h
90 20-04-2020 07:25:00 6.7 C 5.47 g/m*3 6.7 C 1.6 km/h
91 20-04-2020 07:30:00 6.8 C 5.2 g/m*3 6.8 C 1.6 km/h
92 20-04-2020 07:35:00 6.9 C 5.39 g/m*3 6.9 C 1.6 km/h
93 20-04-2020 07:40:00 7.1 C 5.23 g/m*3 6.02 C 6.4 km/h
94 20-04-2020 07:45:00 7.3 C 5.29 g/m*3 7.3 C 3.2 km/h
95 20-04-2020 07:50:00 7.4 C 5.17 g/m*3 7.4 C 4.8 km/h
96 20-04-2020 07:55:00 7.7 C 5.27 g/m*3 6.28 C 8.1 km/h
97 20-04-2020 08:00:00 7.8 C 5.3 g/m*3 7.8 C 4.8 km/h
98 20-04-2020 08:05:00 7.9 C 5.34 g/m*3 6.18 C 9.7 km/h
99 20-04-2020 08:10:00 8.1 C 5.24 g/m*3 8.1 C 4.8 km/h
100 20-04-2020 08:15:00 8.2 C 5.19 g/m*3 7.29 C 6.4 km/h
Sensor: Nr:Datum:Temp:Abs-Feuchte:Windchill:Wind:
Aussen-T/F 101 20-04-2020 08:20:00 8.4 C 5.43 g/m*3 8.4 C 4.8 km/h
102 20-04-2020 08:25:00 8.4 C 5.43 g/m*3 7.52 C 6.4 km/h
103 20-04-2020 08:30:00 8.4 C 5.34 g/m*3 8.4 C 3.2 km/h
104 20-04-2020 08:35:00 8.4 C 5.43 g/m*3 8.4 C 4.8 km/h
105 20-04-2020 08:40:00 8.4 C 5.34 g/m*3 8.4 C 4.8 km/h
106 20-04-2020 08:45:00 8.5 C 5.29 g/m*3 8.5 C 4.8 km/h
107 20-04-2020 08:50:00 8.7 C 5.45 g/m*3 7.87 C 6.4 km/h
108 20-04-2020 08:55:00 8.8 C 5.4 g/m*3 7.25 C 9.7 km/h
109 20-04-2020 09:00:00 8.8 C 5.4 g/m*3 7.58 C 8.1 km/h
110 20-04-2020 09:05:00 8.9 C 5.43 g/m*3 7.69 C 8.1 km/h
111 20-04-2020 09:10:00 8.9 C 5.61 g/m*3 8.9 C 3.2 km/h
112 20-04-2020 09:15:00 9 C 5.38 g/m*3 7.81 C 8.1 km/h
113 20-04-2020 09:20:00 9 C 5.64 g/m*3 9 C 3.2 km/h
114 20-04-2020 09:25:00 9.1 C 5.77 g/m*3 9.1 C 1.6 km/h
115 20-04-2020 09:30:00 9 C 5.47 g/m*3 8.21 C 6.4 km/h
116 20-04-2020 09:35:00 9.3 C 5.84 g/m*3 7.85 C 9.7 km/h
117 20-04-2020 09:40:00 9.4 C 5.52 g/m*3 8.28 C 8.1 km/h
118 20-04-2020 09:45:00 9.7 C 5.53 g/m*3 9.02 C 6.4 km/h
119 20-04-2020 09:50:00 9.7 C 5.81 g/m*3 9.7 C 3.2 km/h
120 20-04-2020 09:55:00 9.7 C 5.53 g/m*3 8.63 C 8.1 km/h
121 20-04-2020 10:00:00 9.9 C 5.7 g/m*3 8.87 C 8.1 km/h
122 20-04-2020 10:05:00 10.1 C 5.77 g/m*3 10.1 C 3.2 km/h
123 20-04-2020 10:10:00 10.4 C 5.59 g/m*3 8.67 C 12.9 km/h
124 20-04-2020 10:15:00 10.7 C 5.6 g/m*3 9.81 C 8.1 km/h
125 20-04-2020 10:20:00 11.2 C 5.47 g/m*3 11.2 C 12.9 km/h
Sensor: Nr:Datum:Temp:Abs-Feuchte:Windchill:Wind:
Aussen-T/F 126 20-04-2020 10:25:00 11.5 C 5.58 g/m*3 11.5 C 11.3 km/h
127 20-04-2020 10:30:00 11.8 C 5.47 g/m*3 11.8 C 9.7 km/h
128 20-04-2020 10:35:00 12.1 C 5.9 g/m*3 12.1 C 9.7 km/h
129 20-04-2020 10:40:00 12.2 C 5.61 g/m*3 12.2 C 12.9 km/h
130 20-04-2020 10:45:00 12.5 C 5.61 g/m*3 12.5 C 11.3 km/h
131 20-04-2020 10:50:00 12.7 C 5.45 g/m*3 12.7 C 11.3 km/h
132 20-04-2020 10:55:00 13 C 5.56 g/m*3 13 C 9.7 km/h
133 20-04-2020 11:00:00 13.3 C 5.31 g/m*3 13.3 C 16.1 km/h
134 20-04-2020 11:05:00 13.4 C 5.35 g/m*3 13.4 C 17.7 km/h
135 20-04-2020 11:10:00 13.7 C 5.45 g/m*3 13.7 C 17.7 km/h
136 20-04-2020 11:15:00 13.8 C 5.36 g/m*3 13.8 C 14.5 km/h
137 20-04-2020 11:20:00 13.9 C 5.63 g/m*3 13.9 C 17.7 km/h
138 20-04-2020 11:25:00 14.2 C 5.98 g/m*3 14.2 C 16.1 km/h
139 20-04-2020 11:30:00 14.3 C 5.28 g/m*3 14.3 C 14.5 km/h
140 20-04-2020 11:35:00 14.4 C 5.44 g/m*3 14.4 C 14.5 km/h
141 20-04-2020 11:40:00 14.6 C 5.38 g/m*3 14.6 C 14.5 km/h
142 20-04-2020 11:45:00 14.7 C 5.41 g/m*3 14.7 C 12.9 km/h
143 20-04-2020 11:50:00 14.8 C 5.32 g/m*3 14.8 C 12.9 km/h
144 20-04-2020 11:55:00 14.9 C 5.23 g/m*3 14.9 C 22.5 km/h
145 20-04-2020 12:00:00 14.9 C 5.23 g/m*3 14.9 C 19.3 km/h
146 20-04-2020 12:05:00 15 C 5.51 g/m*3 15 C 11.3 km/h
147 20-04-2020 12:10:00 15 C 5.13 g/m*3 15 C 17.7 km/h
148 20-04-2020 12:15:00 14.9 C 5.1 g/m*3 14.9 C 27.4 km/h
149 20-04-2020 12:20:00 14.9 C 5.23 g/m*3 14.9 C 12.9 km/h
150 20-04-2020 12:25:00 15.1 C 5.16 g/m*3 15.1 C 14.5 km/h
Sensor: Nr:Datum:Temp:Abs-Feuchte:Windchill:Wind:
Aussen-T/F 151 20-04-2020 12:30:00 15.1 C 5.03 g/m*3 15.1 C 19.3 km/h
152 20-04-2020 12:35:00 15.1 C 5.03 g/m*3 15.1 C 19.3 km/h
153 20-04-2020 12:40:00 15.1 C 5.03 g/m*3 15.1 C 9.7 km/h
154 20-04-2020 12:45:00 15.1 C 5.16 g/m*3 15.1 C 17.7 km/h
155 20-04-2020 12:50:00 15.2 C 5.19 g/m*3 15.2 C 14.5 km/h
156 20-04-2020 12:55:00 15.3 C 5.09 g/m*3 15.3 C 14.5 km/h
157 20-04-2020 13:00:00 15.4 C 5.12 g/m*3 15.4 C 12.9 km/h
158 20-04-2020 13:05:00 15.5 C 5.02 g/m*3 15.5 C 12.9 km/h
159 20-04-2020 13:10:00 15.7 C 5.49 g/m*3 15.7 C 6.4 km/h
160 20-04-2020 13:15:00 15.9 C 5.15 g/m*3 15.9 C 16.1 km/h
161 20-04-2020 13:20:00 15.8 C 5.12 g/m*3 15.8 C 17.7 km/h
162 20-04-2020 13:25:00 15.9 C 5.15 g/m*3 15.9 C 14.5 km/h
163 20-04-2020 13:30:00 16.1 C 5.07 g/m*3 16.1 C 22.5 km/h
164 20-04-2020 13:35:00 16.2 C 5.24 g/m*3 16.2 C 9.7 km/h
165 20-04-2020 13:40:00 16.3 C 5.13 g/m*3 16.3 C 9.7 km/h
166 20-04-2020 13:45:00 16.4 C 5.16 g/m*3 16.4 C 12.9 km/h
167 20-04-2020 13:50:00 16.4 C 5.3 g/m*3 16.4 C 11.3 km/h
168 20-04-2020 13:55:00 16.7 C 5.12 g/m*3 16.7 C 20.9 km/h
169 20-04-2020 14:00:00 16.8 C 5.29 g/m*3 16.8 C 17.7 km/h
170 20-04-2020 14:05:00 16.9 C 5.18 g/m*3 16.9 C 19.3 km/h
171 20-04-2020 14:10:00 16.9 C 5.03 g/m*3 16.9 C 19.3 km/h
172 20-04-2020 14:15:00 17 C 5.06 g/m*3 17 C 19.3 km/h
173 20-04-2020 14:20:00 17.1 C 5.39 g/m*3 17.1 C 16.1 km/h
174 20-04-2020 14:25:00 17.3 C 4.86 g/m*3 17.3 C 17.7 km/h
175 20-04-2020 14:30:00 17.3 C 5.01 g/m*3 17.3 C 16.1 km/h
Sensor: Nr:Datum:Temp:Abs-Feuchte:Windchill:Wind:
Aussen-T/F 176 20-04-2020 14:35:00 17.3 C 5.01 g/m*3 17.3 C 16.1 km/h
177 20-04-2020 14:40:00 17.5 C 5.07 g/m*3 17.5 C 16.1 km/h
178 20-04-2020 14:45:00 17.6 C 5.1 g/m*3 17.6 C 19.3 km/h
179 20-04-2020 14:50:00 17.7 C 5.13 g/m*3 17.7 C 17.7 km/h
180 20-04-2020 14:55:00 17.8 C 5.16 g/m*3 17.8 C 19.3 km/h
181 20-04-2020 15:00:00 17.9 C 5.19 g/m*3 17.9 C 9.7 km/h
182 20-04-2020 15:05:00 18.1 C 4.94 g/m*3 18.1 C 19.3 km/h
183 20-04-2020 15:10:00 18 C 4.92 g/m*3 18 C 20.9 km/h
184 20-04-2020 15:15:00 18.1 C 4.94 g/m*3 18.1 C 12.9 km/h
185 20-04-2020 15:20:00 18.2 C 4.97 g/m*3 18.2 C 20.9 km/h
186 20-04-2020 15:25:00 18.3 C 5.16 g/m*3 18.3 C 16.1 km/h
187 20-04-2020 15:30:00 18.5 C 5.22 g/m*3 18.5 C 16.1 km/h
188 20-04-2020 15:35:00 18.6 C 5.09 g/m*3 18.6 C 11.3 km/h
189 20-04-2020 15:40:00 18.7 C 4.96 g/m*3 18.7 C 17.7 km/h
190 20-04-2020 15:45:00 18.8 C 4.99 g/m*3 18.8 C 17.7 km/h
191 20-04-2020 15:50:00 18.8 C 4.99 g/m*3 18.8 C 14.5 km/h
192 20-04-2020 15:55:00 18.9 C 5.02 g/m*3 18.9 C 22.5 km/h
193 20-04-2020 16:00:00 19 C 4.89 g/m*3 19 C 19.3 km/h
194 20-04-2020 16:05:00 19.1 C 5.08 g/m*3 19.1 C 19.3 km/h
195 20-04-2020 16:10:00 19.2 C 4.95 g/m*3 19.2 C 20.9 km/h
196 20-04-2020 16:15:00 19.3 C 4.98 g/m*3 19.3 C 17.7 km/h
197 20-04-2020 16:20:00 19.5 C 5.03 g/m*3 19.5 C 14.5 km/h
198 20-04-2020 16:25:00 19.7 C 5.26 g/m*3 19.7 C 24.1 km/h
199 20-04-2020 16:30:00 19.9 C 5.15 g/m*3 19.9 C 27.4 km/h
200 20-04-2020 16:35:00 19.6 C 5.06 g/m*3 19.6 C 27.4 km/h
Sensor: Nr:Datum:Temp:Abs-Feuchte:Windchill:Wind:
Aussen-T/F 201 20-04-2020 16:40:00 19.3 C 5.14 g/m*3 19.3 C 19.3 km/h
202 20-04-2020 16:45:00 19.7 C 5.43 g/m*3 19.7 C 14.5 km/h
203 20-04-2020 16:50:00 19.8 C 5.12 g/m*3 19.8 C 19.3 km/h
204 20-04-2020 16:55:00 19.9 C 5.5 g/m*3 19.9 C 12.9 km/h
205 20-04-2020 17:00:00 20.3 C 5.45 g/m*3 20.3 C 8.1 km/h
206 20-04-2020 17:05:00 20.6 C 5.55 g/m*3 20.6 C 11.3 km/h
207 20-04-2020 17:10:00 20.3 C 5.28 g/m*3 20.3 C 17.7 km/h
208 20-04-2020 17:15:00 20.1 C 5.39 g/m*3 20.1 C 22.5 km/h
209 20-04-2020 17:20:00 20.1 C 5.21 g/m*3 20.1 C 22.5 km/h
210 20-04-2020 17:25:00 19.9 C 5.33 g/m*3 19.9 C 25.7 km/h
211 20-04-2020 17:30:00 19.5 C 5.37 g/m*3 19.5 C 22.5 km/h
212 20-04-2020 17:35:00 19.2 C 5.61 g/m*3 19.2 C 33.8 km/h
213 20-04-2020 17:40:00 19.3 C 5.47 g/m*3 19.3 C 24.1 km/h
214 20-04-2020 17:45:00 19.6 C 5.57 g/m*3 19.6 C 12.9 km/h
215 20-04-2020 17:50:00 19.7 C 5.6 g/m*3 19.7 C 19.3 km/h
216 20-04-2020 17:55:00 19.4 C 6.01 g/m*3 19.4 C 25.7 km/h
217 20-04-2020 18:00:00 19.2 C 6.93 g/m*3 19.2 C 24.1 km/h
218 20-04-2020 18:05:00 18.5 C 5.7 g/m*3 18.5 C 27.4 km/h
219 20-04-2020 18:10:00 18.4 C 6.13 g/m*3 18.4 C 12.9 km/h
220 20-04-2020 18:15:00 18.6 C 5.89 g/m*3 18.6 C 20.9 km/h
221 20-04-2020 18:20:00 18.7 C 5.76 g/m*3 18.7 C 19.3 km/h
222 20-04-2020 18:25:00 18.6 C 5.73 g/m*3 18.6 C 20.9 km/h
223 20-04-2020 18:30:00 18.6 C 5.57 g/m*3 18.6 C 27.4 km/h
224 20-04-2020 18:35:00 18.6 C 5.57 g/m*3 18.6 C 22.5 km/h
225 20-04-2020 18:40:00 18.7 C 5.6 g/m*3 18.7 C 22.5 km/h
Sensor: Nr:Datum:Temp:Abs-Feuchte:Windchill:Wind:
Aussen-T/F 226 20-04-2020 18:45:00 18.6 C 5.89 g/m*3 18.6 C 17.7 km/h
227 20-04-2020 18:50:00 18.7 C 5.6 g/m*3 18.7 C 20.9 km/h
228 20-04-2020 18:55:00 18.8 C 5.64 g/m*3 18.8 C 19.3 km/h
229 20-04-2020 19:00:00 18.6 C 5.57 g/m*3 18.6 C 20.9 km/h
230 20-04-2020 19:05:00 18.4 C 5.5 g/m*3 18.4 C 24.1 km/h
231 20-04-2020 19:10:00 18.2 C 5.91 g/m*3 18.2 C 14.5 km/h
232 20-04-2020 19:15:00 18.2 C 5.44 g/m*3 18.2 C 14.5 km/h
233 20-04-2020 19:20:00 17.9 C 5.5 g/m*3 17.9 C 14.5 km/h
234 20-04-2020 19:25:00 17.6 C 5.55 g/m*3 17.6 C 27.4 km/h
235 20-04-2020 19:30:00 17.4 C 5.48 g/m*3 17.4 C 12.9 km/h
236 20-04-2020 19:35:00 17.4 C 5.48 g/m*3 17.4 C 12.9 km/h
237 20-04-2020 19:40:00 17.2 C 5.27 g/m*3 17.2 C 16.1 km/h
238 20-04-2020 19:45:00 17 C 5.35 g/m*3 17 C 12.9 km/h
239 20-04-2020 19:50:00 16.8 C 5.15 g/m*3 16.8 C 9.7 km/h
240 20-04-2020 19:55:00 16.7 C 5.12 g/m*3 16.7 C 16.1 km/h
241 20-04-2020 20:00:00 16.5 C 5.34 g/m*3 16.5 C 14.5 km/h
242 20-04-2020 20:05:00 16.3 C 5.27 g/m*3 16.3 C 16.1 km/h
243 20-04-2020 20:10:00 16.1 C 5.21 g/m*3 16.1 C 17.7 km/h
244 20-04-2020 20:15:00 15.9 C 5.28 g/m*3 15.9 C 3.2 km/h
245 20-04-2020 20:20:00 15.7 C 5.35 g/m*3 15.7 C 16.1 km/h
246 20-04-2020 20:25:00 15.4 C 5.52 g/m*3 15.4 C 4.8 km/h
247 20-04-2020 20:30:00 15.1 C 5.42 g/m*3 15.1 C 4.8 km/h
248 20-04-2020 20:35:00 14.8 C 5.19 g/m*3 14.8 C 6.4 km/h
249 20-04-2020 20:40:00 14.7 C 5.04 g/m*3 14.7 C 6.4 km/h
250 20-04-2020 20:45:00 14.7 C 5.16 g/m*3 14.7 C 16.1 km/h
Sensor: Nr:Datum:Temp:Abs-Feuchte:Windchill:Wind:
Aussen-T/F 251 20-04-2020 20:50:00 14.6 C 5.26 g/m*3 14.6 C 3.2 km/h
252 20-04-2020 20:55:00 14.4 C 5.19 g/m*3 14.4 C 8.1 km/h
253 20-04-2020 21:00:00 14.2 C 5.13 g/m*3 14.2 C 4.8 km/h
254 20-04-2020 21:05:00 14.1 C 4.98 g/m*3 14.1 C 6.4 km/h
255 20-04-2020 21:10:00 13.9 C 5.15 g/m*3 13.9 C 3.2 km/h
256 20-04-2020 21:15:00 13.7 C 5.21 g/m*3 13.7 C 4.8 km/h
257 20-04-2020 21:20:00 13.4 C 5.23 g/m*3 13.4 C 1.6 km/h
258 20-04-2020 21:25:00 13.2 C 5.05 g/m*3 13.2 C 6.4 km/h
259 20-04-2020 21:30:00 13.1 C 5.36 g/m*3 13.1 C 1.6 km/h
260 20-04-2020 21:35:00 12.7 C 5.01 g/m*3 12.7 C 8.1 km/h
261 20-04-2020 21:40:00 12.6 C 5.09 g/m*3 12.6 C 8.1 km/h
262 20-04-2020 21:45:00 12.4 C 5.14 g/m*3 12.4 C 1.6 km/h
263 20-04-2020 21:50:00 12.6 C 4.98 g/m*3 12.6 C 11.3 km/h
264 20-04-2020 21:55:00 12.7 C 4.9 g/m*3 12.7 C 4.8 km/h
265 20-04-2020 22:00:00 12.7 C 5.23 g/m*3 12.7 C 1.6 km/h
266 20-04-2020 22:05:00 12.6 C 4.98 g/m*3 12.6 C 4.8 km/h
267 20-04-2020 22:10:00 12.6 C 4.98 g/m*3 12.6 C 4.8 km/h
268 20-04-2020 22:15:00 12.5 C 5.28 g/m*3 12.5 C 4.8 km/h
269 20-04-2020 22:20:00 12.3 C 5.1 g/m*3 12.3 C 11.3 km/h
270 20-04-2020 22:25:00 12.4 C 4.92 g/m*3 12.4 C 11.3 km/h
271 20-04-2020 22:30:00 12.4 C 4.92 g/m*3 12.4 C 4.8 km/h
272 20-04-2020 22:35:00 12.4 C 5.03 g/m*3 12.4 C 3.2 km/h
273 20-04-2020 22:40:00 12.4 C 4.92 g/m*3 12.4 C 8.1 km/h
274 20-04-2020 22:45:00 12.4 C 5.03 g/m*3 12.4 C 1.6 km/h
275 20-04-2020 22:50:00 12.2 C 5.07 g/m*3 12.2 C 4.8 km/h
Sensor: Nr:Datum:Temp:Abs-Feuchte:Windchill:Wind:
Aussen-T/F 276 20-04-2020 22:55:00 12 C 5.01 g/m*3 12 C 8.1 km/h
277 20-04-2020 23:00:00 11.9 C 4.87 g/m*3 11.9 C 6.4 km/h
278 20-04-2020 23:05:00 11.8 C 4.95 g/m*3 11.8 C 6.4 km/h
279 20-04-2020 23:10:00 11.8 C 4.84 g/m*3 11.8 C 8.1 km/h
280 20-04-2020 23:15:00 11.7 C 4.71 g/m*3 11.7 C 0 km/h
281 20-04-2020 23:20:00 11.8 C 5.05 g/m*3 11.8 C 1.6 km/h
282 20-04-2020 23:25:00 11.6 C 4.89 g/m*3 11.6 C 4.8 km/h
283 20-04-2020 23:30:00 11.6 C 4.78 g/m*3 11.6 C 8.1 km/h
284 20-04-2020 23:35:00 11.7 C 4.81 g/m*3 11.7 C 4.8 km/h
285 20-04-2020 23:40:00 11.7 C 4.71 g/m*3 11.7 C 4.8 km/h
286 20-04-2020 23:45:00 11.6 C 4.68 g/m*3 11.6 C 12.9 km/h
287 20-04-2020 23:50:00 11.6 C 4.89 g/m*3 11.6 C 3.2 km/h
288 20-04-2020 23:55:00 11.5 C 4.75 g/m*3 11.5 C 9.7 km/h

Legende:
   Min
   Max


Maximal/Minimal-Werte vom 20.04.2020 - 20.04.2020

Sensor Min Max Avg
Temp
(Aussen-T/F)
6.3 °C
20-04-2020  06:15:00
20.6 °C
20-04-2020  17:05:00
12.51 °C
Abs-Feuchte
(Aussen-T/F)
4.68 g/m*3
20-04-2020  23:45:00
6.93 g/m*3
20-04-2020  18:00:00
5.29 g/m*3
Windchill
(Aussen-T/F)
6.02 C
20-04-2020  07:40:00
20.6 C
20-04-2020  17:05:00
12.37 C

Die Daten stammen von einer Davis Vantage Pro 2 Wetter-Station und werden unter Linux mit der Software wview2wettercgi und aufbereitet. Alle Angaben erfolgen ohne Gewähr für ihre Vollständigkeit oder Richtigkeit.
Kontakt: Rainer Krienke krienke@uni-koblenz.de . Meine Webseiten an der Uni Koblenz oder privat.
Version: $Revision: 0.78 $